Time;durP1;ratioP1;P1;durP2;ratioP2;P2;SDS_P1;SDS_P2;PMS_P1;PMS_P2;Temp;Humidity;BMP_temperature;BMP_pressure;BME280_temperature;BME280_humidity;BME280_pressure;Samples;Min_cycle;Max_cycle;Signal;HPM_P1;HPM_P2
2023/05/06 00:01:52;;;;;;;0.00;0.00;;;;;;;13.27;100.00;98815.16;4911121;29;20237;-67
2023/05/06 00:04:19;;;;;;;0.00;0.00;;;;;;;13.32;100.00;98816.47;4908110;29;20238;-67
2023/05/06 00:06:46;;;;;;;0.00;0.00;;;;;;;13.35;100.00;98811.75;4888070;29;20290;-67
2023/05/06 00:09:12;;;;;;;0.00;0.00;;;;;;;13.38;100.00;98821.06;4911070;29;20594;-67
2023/05/06 00:11:40;;;;;;;0.00;0.00;;;;;;;13.45;100.00;98813.41;4890256;29;20240;-67
2023/05/06 00:14:07;;;;;;;0.00;0.00;;;;;;;13.42;100.00;98814.53;4910661;29;20230;-67
2023/05/06 00:16:33;;;;;;;0.00;0.00;;;;;;;13.46;100.00;98808.00;4907125;29;20258;-67
2023/05/06 00:19:00;;;;;;;0.00;0.00;;;;;;;13.42;100.00;98807.50;4909880;29;20231;-67
2023/05/06 00:21:27;;;;;;;0.00;0.00;;;;;;;13.45;100.00;98808.16;4905351;29;20243;-67
2023/05/06 00:23:53;;;;;;;0.00;0.00;;;;;;;13.45;100.00;98801.09;4902019;29;20236;-67
2023/05/06 00:26:20;;;;;;;0.00;0.00;;;;;;;13.45;100.00;98803.72;4907787;29;20715;-67
2023/05/06 00:28:48;;;;;;;0.00;0.00;;;;;;;13.42;100.00;98796.19;4881839;29;20383;-67
2023/05/06 00:31:14;;;;;;;0.00;0.00;;;;;;;13.41;100.00;98802.38;4877980;29;20720;-68
2023/05/06 00:33:43;;;;;;;0.00;0.00;;;;;;;13.39;100.00;98799.94;4887362;29;20692;-68
2023/05/06 00:36:09;;;;;;;0.00;0.00;;;;;;;13.38;100.00;98800.94;4898303;29;20638;-68
2023/05/06 00:38:36;;;;;;;0.00;0.00;;;;;;;13.45;100.00;98800.31;4904829;29;20235;-68
2023/05/06 00:41:03;;;;;;;0.00;0.00;;;;;;;13.38;100.00;98789.59;4910582;29;20239;-68
2023/05/06 00:43:30;;;;;;;0.00;0.00;;;;;;;13.34;100.00;98788.28;4882780;29;20231;-68
2023/05/06 00:45:58;;;;;;;0.00;0.00;;;;;;;13.29;100.00;98786.19;4885103;29;20236;-68
2023/05/06 00:48:24;;;;;;;0.00;0.00;;;;;;;13.27;100.00;98788.16;4894791;29;20239;-67
2023/05/06 00:50:51;;;;;;;0.00;0.00;;;;;;;13.28;100.00;98789.78;4887932;29;20267;-67
2023/05/06 00:53:20;;;;;;;0.00;0.00;;;;;;;13.26;100.00;98786.50;4900623;29;20243;-67
2023/05/06 00:55:49;;;;;;;0.00;0.00;;;;;;;13.28;100.00;98787.97;4905500;29;20258;-67
2023/05/06 00:58:15;;;;;;;0.00;0.00;;;;;;;13.31;100.00;98793.88;4894060;29;20743;-67
2023/05/06 01:00:42;;;;;;;0.00;0.00;;;;;;;13.32;100.00;98792.88;4889681;29;20231;-67
2023/05/06 01:03:10;;;;;;;0.00;0.00;;;;;;;13.30;100.00;98787.81;4908414;29;20737;-67
2023/05/06 01:05:47;;;;;;;0.00;0.00;;;;;;;13.32;100.00;98791.09;4907228;29;20258;-67
2023/05/06 01:08:21;;;;;;;0.00;0.00;;;;;;;13.34;100.00;98797.00;4909157;29;20242;-67
2023/05/06 01:10:54;;;;;;;0.00;0.00;;;;;;;13.36;100.00;98802.06;4905761;29;20688;-67
2023/05/06 01:13:28;;;;;;;0.00;0.00;;;;;;;13.37;100.00;98788.81;4872817;29;20294;-67
2023/05/06 01:15:57;;;;;;;0.00;0.00;;;;;;;13.42;100.00;98796.19;4909105;29;20294;-67
2023/05/06 01:18:27;;;;;;;0.00;0.00;;;;;;;13.41;100.00;98787.53;4880369;29;20242;-67
2023/05/06 01:20:55;;;;;;;0.00;0.00;;;;;;;13.42;100.00;98789.16;4909601;29;20592;-67
2023/05/06 01:23:23;;;;;;;0.00;0.00;;;;;;;13.41;100.00;98784.03;4889334;29;20335;-67
2023/05/06 01:25:50;;;;;;;0.00;0.00;;;;;;;13.40;100.00;98783.22;4908727;29;20235;-67
2023/05/06 01:28:17;;;;;;;0.00;0.00;;;;;;;13.35;100.00;98787.31;4897957;29;20293;-67
2023/05/06 01:30:55;;;;;;;0.00;0.00;;;;;;;13.30;100.00;98787.81;4882111;29;20248;-67
2023/05/06 01:33:32;;;;;;;0.00;0.00;;;;;;;13.28;100.00;98782.72;4880191;29;20735;-67
2023/05/06 01:36:08;;;;;;;0.00;0.00;;;;;;;13.27;100.00;98783.72;4878348;29;20298;-67
2023/05/06 01:38:42;;;;;;;0.00;0.00;;;;;;;13.29;100.00;98780.94;4904984;29;20728;-67
2023/05/06 01:41:15;;;;;;;0.00;0.00;;;;;;;13.32;100.00;98788.47;4901490;29;20290;-67
2023/05/06 01:43:45;;;;;;;0.00;0.00;;;;;;;13.30;100.00;98782.59;4901882;29;20239;-67
2023/05/06 01:46:17;;;;;;;0.00;0.00;;;;;;;13.30;100.00;98779.97;4889076;29;20238;-67
2023/05/06 01:48:46;;;;;;;0.00;0.00;;;;;;;13.27;100.00;98775.03;4875332;29;20712;-67
2023/05/06 01:51:12;;;;;;;0.00;0.00;;;;;;;13.23;100.00;98774.56;4887833;29;20250;-67
2023/05/06 01:53:40;;;;;;;0.00;0.00;;;;;;;13.22;100.00;98770.31;4905923;29;20242;-67
2023/05/06 01:56:07;;;;;;;0.00;0.00;;;;;;;13.21;100.00;98775.69;4896202;29;20342;-67
2023/05/06 01:58:34;;;;;;;0.00;0.00;;;;;;;13.17;100.00;98777.00;4879148;29;20226;-67
2023/05/06 02:01:01;;;;;;;0.00;0.00;;;;;;;13.12;100.00;98774.91;4891422;29;20247;-67
2023/05/06 02:03:28;;;;;;;0.00;0.00;;;;;;;13.06;100.00;98776.34;4905791;29;20230;-67
2023/05/06 02:05:54;;;;;;;0.00;0.00;;;;;;;12.98;100.00;98779.78;4909508;29;20610;-67
2023/05/06 02:08:21;;;;;;;0.00;0.00;;;;;;;12.94;100.00;98780.25;4897784;29;20231;-67
2023/05/06 02:10:49;;;;;;;0.00;0.00;;;;;;;12.87;100.00;98782.72;4891746;29;20710;-67
2023/05/06 02:13:17;;;;;;;0.00;0.00;;;;;;;12.83;100.00;98782.22;4894988;29;20285;-67
2023/05/06 02:15:44;;;;;;;0.00;0.00;;;;;;;12.83;100.00;98786.66;4884932;29;20798;-67
2023/05/06 02:18:15;;;;;;;0.00;0.00;;;;;;;12.83;100.00;98784.84;4888596;29;20246;-67
2023/05/06 02:20:42;;;;;;;0.00;0.00;;;;;;;12.86;100.00;98791.56;4873421;29;20238;-67
2023/05/06 02:23:14;;;;;;;0.00;0.00;;;;;;;12.89;100.00;98779.94;4903931;29;20252;-67
2023/05/06 02:25:40;;;;;;;0.00;0.00;;;;;;;12.92;100.00;98783.06;4905400;29;20228;-67
2023/05/06 02:28:09;;;;;;;0.00;0.00;;;;;;;12.90;100.00;98782.41;4902288;29;20230;-67
2023/05/06 02:30:35;;;;;;;0.00;0.00;;;;;;;12.95;100.00;98781.91;4904529;29;20726;-67
2023/05/06 02:33:02;;;;;;;0.00;0.00;;;;;;;12.97;100.00;98777.31;4884118;29;20231;-67
2023/05/06 02:35:28;;;;;;;0.00;0.00;;;;;;;12.96;100.00;98770.44;4902084;29;20313;-68
2023/05/06 02:37:55;;;;;;;0.00;0.00;;;;;;;12.95;100.00;98768.81;4880507;29;20808;-68
2023/05/06 02:40:22;;;;;;;0.00;0.00;;;;;;;12.96;100.00;98770.44;4882846;29;20227;-68
2023/05/06 02:42:48;;;;;;;0.00;0.00;;;;;;;12.88;100.00;98773.88;4908336;29;20250;-68
2023/05/06 02:45:16;;;;;;;0.00;0.00;;;;;;;12.89;100.00;98765.03;4893025;29;20298;-68
2023/05/06 02:47:43;;;;;;;0.00;0.00;;;;;;;12.85;100.00;98769.78;4891218;29;20288;-67
2023/05/06 02:50:10;;;;;;;0.00;0.00;;;;;;;12.85;100.00;98767.16;4907168;29;20242;-67
2023/05/06 02:52:37;;;;;;;0.00;0.00;;;;;;;12.82;100.00;98759.63;4897604;29;20246;-67
2023/05/06 02:55:04;;;;;;;0.00;0.00;;;;;;;12.82;100.00;98757.00;4886531;29;20234;-67
2023/05/06 02:57:30;;;;;;;5.70;3.30;;;;;;;12.78;100.00;98755.69;4890452;29;20252;-67
2023/05/06 02:59:57;;;;;;;5.67;3.30;;;;;;;12.74;100.00;98751.75;4887780;29;20230;-68
2023/05/06 03:02:25;;;;;;;6.37;3.60;;;;;;;12.71;100.00;98754.72;4881747;29;20730;-68
2023/05/06 03:04:52;;;;;;;9.13;3.50;;;;;;;12.69;100.00;98751.44;4902715;29;20306;-68
2023/05/06 03:07:20;;;;;;;7.40;3.63;;;;;;;12.66;100.00;98752.56;4879040;29;20229;-68
2023/05/06 03:09:48;;;;;;;6.07;3.43;;;;;;;12.61;100.00;98746.19;4886568;29;20236;-68
2023/05/06 03:12:15;;;;;;;7.13;3.40;;;;;;;12.55;100.00;98742.41;4880153;29;20245;-68
2023/05/06 03:15:08;;;;;;;9.57;3.60;;;;;;;12.46;100.00;98751.22;4896816;29;20241;-68
2023/05/06 03:17:37;;;;;;;11.33;3.97;;;;;;;12.37;100.00;98756.44;4906932;29;20238;-68
2023/05/06 03:20:08;;;;;;;4.83;3.90;;;;;;;12.35;100.00;98750.53;4910455;29;20891;-68
2023/05/06 03:22:37;;;;;;;6.20;3.80;;;;;;;12.30;100.00;98742.34;4907549;29;20248;-68
2023/05/06 03:25:04;;;;;;;6.63;3.60;;;;;;;12.27;100.00;98747.88;4885789;29;20237;-68
2023/05/06 03:27:32;;;;;;;6.67;3.90;;;;;;;12.30;100.00;98741.53;4891489;29;20323;-68
2023/05/06 03:32:56;;;;;;;9.40;4.00;;;;;;;12.21;100.00;98749.34;4971188;23;20235;-68
2023/05/06 03:35:28;;;;;;;9.37;3.77;;;;;;;12.19;100.00;98753.13;4918393;29;20232;-68
2023/05/06 03:37:57;;;;;;;8.53;3.80;;;;;;;12.09;100.00;98740.97;4920067;29;20308;-68
2023/05/06 03:40:28;;;;;;;8.13;3.97;;;;;;;12.04;100.00;98745.88;4916095;29;20225;-68
2023/05/06 03:42:57;;;;;;;7.37;3.77;;;;;;;12.05;100.00;98739.66;4919844;29;20584;-68
2023/05/06 03:45:25;;;;;;;8.30;4.60;;;;;;;12.01;100.00;98746.19;4902290;29;20236;-68
2023/05/06 03:47:51;;;;;;;12.47;5.27;;;;;;;11.99;100.00;98742.88;4909136;29;20233;-68
2023/05/06 03:50:21;;;;;;;0.00;0.00;;;;;;;11.94;100.00;98738.09;4906717;29;20588;-68
2023/05/06 03:52:49;;;;;;;0.00;0.00;;;;;;;11.93;100.00;98752.16;4909753;29;20237;-67
2023/05/06 03:55:16;;;;;;;0.00;0.00;;;;;;;11.99;100.00;98742.03;4909944;29;20712;-67
2023/05/06 03:57:43;;;;;;;0.00;0.00;;;;;;;12.06;100.00;98743.91;4914184;29;20241;-67
2023/05/06 04:00:11;;;;;;;0.00;0.00;;;;;;;12.14;100.00;98750.97;4909165;29;20252;-67
2023/05/06 04:02:46;;;;;;;0.00;0.00;;;;;;;12.21;100.00;98749.34;4906634;29;20237;-67
2023/05/06 04:05:21;;;;;;;0.00;0.00;;;;;;;12.28;100.00;98751.34;4905945;29;20295;-67
2023/05/06 04:07:48;;;;;;;0.00;0.00;;;;;;;12.33;100.00;98751.69;4910932;29;20733;-67
2023/05/06 04:10:14;;;;;;;0.00;0.00;;;;;;;12.39;100.00;98753.66;4924684;29;20243;-67
2023/05/06 04:12:46;;;;;;;0.00;0.00;;;;;;;12.43;100.00;98743.69;4902897;29;20229;-67
2023/05/06 04:15:15;;;;;;;0.00;0.00;;;;;;;12.46;100.00;98745.97;4913019;29;20257;-67
2023/05/06 04:17:42;;;;;;;0.00;0.00;;;;;;;12.49;100.00;98748.28;4908947;29;20244;-67
2023/05/06 04:20:10;;;;;;;0.00;0.00;;;;;;;12.50;100.00;98750.75;4929971;29;20226;-67
2023/05/06 04:22:40;;;;;;;0.00;0.00;;;;;;;12.53;100.00;98755.66;4897098;29;20242;-67
2023/05/06 04:25:08;;;;;;;0.00;0.00;;;;;;;12.55;100.00;98755.50;4919635;29;20244;-67
2023/05/06 04:27:37;;;;;;;0.00;0.00;;;;;;;12.59;100.00;98761.25;4921651;29;20277;-67
2023/05/06 04:30:07;;;;;;;0.00;0.00;;;;;;;12.57;100.00;98757.97;4908665;29;20297;-67
2023/05/06 04:32:35;;;;;;;0.00;0.00;;;;;;;12.50;100.00;98761.22;4921293;29;20237;-67
2023/05/06 04:35:04;;;;;;;0.00;0.00;;;;;;;12.46;100.00;98761.69;4916002;29;20225;-68
2023/05/06 04:37:31;;;;;;;0.00;0.00;;;;;;;12.40;100.00;98758.72;4897105;29;20732;-68
2023/05/06 04:40:17;;;;;;;0.00;0.00;;;;;;;12.39;100.00;98767.56;4925597;28;20230;-67
2023/05/06 04:42:45;;;;;;;0.00;0.00;;;;;;;12.36;100.00;98769.69;4900728;29;20267;-67
2023/05/06 04:45:17;;;;;;;0.00;0.00;;;;;;;12.33;100.00;98767.38;4928054;29;20233;-67
2023/05/06 04:47:47;;;;;;;0.00;0.00;;;;;;;12.30;100.00;98773.75;4924974;29;20316;-67
2023/05/06 04:50:14;;;;;;;0.00;0.00;;;;;;;12.31;100.00;98771.97;4914345;29;20272;-67
2023/05/06 04:52:41;;;;;;;0.00;0.00;;;;;;;12.27;100.00;98768.81;4917107;28;20331;-67
2023/05/06 04:55:09;;;;;;;0.00;0.00;;;;;;;12.30;100.00;98775.56;4924724;29;20238;-67
2023/05/06 04:57:38;;;;;;;0.00;0.00;;;;;;;12.32;100.00;98778.84;4922889;29;20325;-67
2023/05/06 05:00:08;;;;;;;0.00;0.00;;;;;;;12.39;100.00;98778.03;4903990;29;20285;-67
2023/05/06 05:02:35;;;;;;;0.00;0.00;;;;;;;12.43;100.00;98778.53;4895060;29;20324;-67
2023/05/06 05:05:02;;;;;;;0.00;0.00;;;;;;;12.48;100.00;98776.28;4924025;29;20245;-67
2023/05/06 05:07:29;;;;;;;0.00;0.00;;;;;;;12.52;100.00;98774.97;4900446;29;20237;-67
2023/05/06 05:09:55;;;;;;;0.00;0.00;;;;;;;12.61;100.00;98782.84;4909615;29;20628;-67
2023/05/06 05:12:22;;;;;;;0.00;0.00;;;;;;;12.70;100.00;98787.94;4920819;29;20840;-67
2023/05/06 05:14:52;;;;;;;0.00;0.00;;;;;;;12.81;100.00;98783.38;4907669;29;20325;-67
2023/05/06 05:17:19;;;;;;;0.00;0.00;;;;;;;12.90;100.00;98777.16;4908103;29;20245;-67
2023/05/06 05:19:50;;;;;;;0.00;0.00;;;;;;;12.99;100.00;98783.22;4887311;29;20226;-67
2023/05/06 05:22:17;;;;;;;0.00;0.00;;;;;;;13.07;100.00;98783.22;4916057;29;20316;-67
2023/05/06 05:24:48;;;;;;;0.00;0.00;;;;;;;13.11;100.00;98781.13;4908545;29;20260;-67
2023/05/06 05:27:16;;;;;;;0.00;0.00;;;;;;;13.20;100.00;98781.94;4914072;28;20220;-67
2023/05/06 05:29:48;;;;;;;0.00;0.00;;;;;;;13.26;100.00;98789.13;4914273;29;20241;-67
2023/05/06 05:32:17;;;;;;;0.00;0.00;;;;;;;13.30;100.00;98782.59;4892356;29;20264;-67
2023/05/06 05:34:48;;;;;;;0.00;0.00;;;;;;;13.31;100.00;98784.22;4924547;29;20312;-67
2023/05/06 05:37:15;;;;;;;0.00;0.00;;;;;;;13.40;100.00;98785.84;4910109;29;20237;-67
2023/05/06 05:39:48;;;;;;;0.00;0.00;;;;;;;13.39;100.00;98789.47;4916360;28;20242;-68
2023/05/06 05:42:17;;;;;;;0.00;0.00;;;;;;;13.48;100.00;98797.34;4911595;29;20233;-67
2023/05/06 05:44:49;;;;;;;0.00;0.00;;;;;;;13.47;100.00;98798.34;4897472;29;20230;-67
2023/05/06 05:47:17;;;;;;;0.00;0.00;;;;;;;13.51;100.00;98797.03;4915155;29;20266;-67
2023/05/06 05:49:48;;;;;;;0.00;0.00;;;;;;;13.56;100.00;98799.97;4920992;29;20732;-67
2023/05/06 05:52:16;;;;;;;0.00;0.00;;;;;;;13.65;100.00;98792.91;4918278;29;21198;-67
2023/05/06 05:54:49;;;;;;;0.00;0.00;;;;;;;13.71;100.00;98803.56;4904147;28;20239;-67
2023/05/06 05:57:16;;;;;;;0.00;0.00;;;;;;;13.75;100.00;98801.41;4903025;29;20258;-67
2023/05/06 05:59:49;;;;;;;0.00;0.00;;;;;;;13.80;100.00;98793.03;4878064;29;20305;-67
2023/05/06 06:02:17;;;;;;;0.00;0.00;;;;;;;13.80;100.00;98795.66;4895639;29;20244;-67
2023/05/06 06:04:48;;;;;;;0.00;0.00;;;;;;;13.85;100.00;98796.78;4908039;29;20543;-67
2023/05/06 06:07:15;;;;;;;0.00;0.00;;;;;;;13.87;100.00;98797.44;4906024;29;20237;-67
2023/05/06 06:09:48;;;;;;;0.00;0.00;;;;;;;13.95;100.00;98803.66;4924408;29;20322;-67
2023/05/06 06:12:16;;;;;;;0.00;0.00;;;;;;;14.01;100.00;98803.78;4907464;29;20240;-67
2023/05/06 06:14:48;;;;;;;0.00;0.00;;;;;;;14.05;100.00;98803.47;4907976;29;20235;-67
2023/05/06 06:17:21;;;;;;;0.00;0.00;;;;;;;14.14;100.00;98805.91;4921464;28;20707;-67
2023/05/06 06:19:50;;;;;;;0.00;0.00;;;;;;;14.20;100.00;98804.38;4892488;28;20739;-68
2023/05/06 06:22:17;;;;;;;0.00;0.00;;;;;;;14.26;100.00;98803.72;4920069;29;20239;-68
2023/05/06 06:24:48;;;;;;;0.00;0.00;;;;;;;14.32;100.00;98804.81;4906761;29;20232;-65
2023/05/06 06:27:15;;;;;;;0.00;0.00;;;;;;;14.44;100.00;98802.66;4907964;29;20234;-65
2023/05/06 06:30:07;;;;;;;0.00;0.00;;;;;;;14.56;100.00;98810.97;4924891;29;20705;-65
2023/05/06 06:32:35;;;;;;;0.00;0.00;;;;;;;14.69;100.00;98810.41;4904666;29;20243;-66
2023/05/06 06:35:02;;;;;;;0.00;0.00;;;;;;;14.83;100.00;98817.59;4915286;28;20244;-67
2023/05/06 06:37:28;;;;;;;0.00;0.00;;;;;;;14.83;100.00;98820.22;4907557;29;20555;-67
2023/05/06 06:39:56;;;;;;;0.00;0.00;;;;;;;14.93;100.00;98829.66;4927665;28;20259;-68
2023/05/06 06:42:23;;;;;;;0.00;0.00;;;;;;;15.06;100.00;98832.53;4923903;29;20242;-68
2023/05/06 06:44:59;;;;;;;0.00;0.00;;;;;;;15.16;100.00;98834.97;4926905;29;20690;-68
2023/05/06 06:47:26;;;;;;;0.00;0.00;;;;;;;15.28;100.00;98828.28;4927830;29;20231;-68
2023/05/06 06:49:54;;;;;;;0.00;0.00;;;;;;;15.23;100.00;98841.16;4918775;28;20236;-68
2023/05/06 06:52:21;;;;;;;0.00;0.00;;;;;;;15.28;100.00;98832.72;4921221;29;20271;-68
2023/05/06 06:54:48;;;;;;;0.00;0.00;;;;;;;15.22;100.00;98833.41;4905367;29;20242;-68
2023/05/06 06:57:15;;;;;;;0.00;0.00;;;;;;;15.11;100.00;98843.34;4931542;29;20590;-68
2023/05/06 07:00:07;;;;;;;0.00;0.00;;;;;;;15.04;100.00;98832.72;4927455;28;20253;-68
2023/05/06 07:02:34;;;;;;;0.00;0.00;;;;;;;15.01;100.00;98837.50;4926583;29;20317;-68
2023/05/06 07:05:02;;;;;;;0.00;0.00;;;;;;;14.99;100.00;98845.56;4926150;28;20239;-68
2023/05/06 07:07:28;;;;;;;0.00;0.00;;;;;;;14.92;100.00;98836.75;4926071;29;20226;-68
2023/05/06 07:09:56;;;;;;;0.00;0.00;;;;;;;14.88;100.00;98841.50;4930966;28;20687;-68
2023/05/06 07:12:25;;;;;;;0.00;0.00;;;;;;;15.01;100.00;98842.75;4927612;29;20622;-68
2023/05/06 07:14:52;;;;;;;0.00;0.00;;;;;;;15.15;100.00;98838.56;4930300;28;20239;-68
2023/05/06 07:17:18;;;;;;;0.00;0.00;;;;;;;15.28;100.00;98843.25;4926576;29;20232;-68
2023/05/06 07:19:49;;;;;;;0.00;0.00;;;;;;;15.33;100.00;98833.00;4909019;29;20244;-68
2023/05/06 07:22:17;;;;;;;0.00;0.00;;;;;;;15.46;100.00;98837.66;4911932;29;20251;-68
2023/05/06 07:24:48;;;;;;;0.00;0.00;;;;;;;15.62;100.00;98834.91;4912910;28;20591;-68
2023/05/06 07:27:15;;;;;;;0.00;0.00;;;;;;;15.75;100.00;98844.81;4902480;29;20575;-66
2023/05/06 07:29:48;;;;;;;0.00;0.00;;;;;;;16.11;100.00;98840.72;4928261;29;20250;-67
2023/05/06 07:32:14;;;;;;;0.00;0.00;;;;;;;16.11;100.00;98842.50;4915217;29;20310;-68
2023/05/06 07:34:45;;;;;;;0.00;0.00;;;;;;;16.37;100.00;98842.06;4910868;29;20723;-68
2023/05/06 07:37:11;;;;;;;0.00;0.00;;;;;;;16.44;100.00;98842.94;4923610;28;20239;-68
2023/05/06 07:39:39;;;;;;;0.00;0.00;;;;;;;16.52;100.00;98842.03;4909837;29;20885;-67
2023/05/06 07:42:06;;;;;;;0.00;0.00;;;;;;;16.59;100.00;98844.75;4922634;29;20265;-67
2023/05/06 07:44:32;;;;;;;0.00;0.00;;;;;;;16.50;98.77;98857.22;4916022;28;20323;-67
2023/05/06 07:46:59;;;;;;;8.87;6.00;;;;;;;16.60;99.39;98851.66;4897110;29;20244;-67
2023/05/06 07:49:27;;;;;;;10.20;6.37;;;;;;;16.74;96.76;98850.00;4874082;29;20239;-67
2023/05/06 07:51:54;;;;;;;8.57;5.47;;;;;;;16.67;95.76;98857.81;4916709;29;20692;-67
2023/05/06 07:54:20;;;;;;;9.80;6.40;;;;;;;16.43;94.99;98853.69;4923909;28;20237;-68
2023/05/06 07:56:48;;;;;;;13.40;7.30;;;;;;;16.38;97.69;98851.59;4928264;29;20250;-68
2023/05/06 07:59:15;;;;;;;12.00;6.67;;;;;;;16.23;99.80;98854.22;4929910;29;20294;-68
2023/05/06 08:01:41;;;;;;;10.90;5.50;;;;;;;16.35;99.98;98858.03;4926995;29;20728;-68
2023/05/06 08:04:08;;;;;;;8.00;5.90;;;;;;;16.40;100.00;98861.94;4928626;29;20227;-68
2023/05/06 08:06:35;;;;;;;8.13;5.80;;;;;;;16.47;96.10;98855.75;4918972;29;20725;-68
2023/05/06 08:09:01;;;;;;;9.67;4.90;;;;;;;16.59;94.32;98866.66;4929281;29;20731;-68
2023/05/06 08:11:28;;;;;;;11.87;4.73;;;;;;;16.78;92.77;98859.97;4911619;29;20229;-68
2023/05/06 08:13:56;;;;;;;7.87;4.13;;;;;;;17.11;91.47;98864.81;4928787;29;20235;-66
2023/05/06 08:16:22;;;;;;;10.07;4.40;;;;;;;17.11;90.68;98864.81;4925469;29;20243;-68
2023/05/06 08:18:49;;;;;;;7.10;4.70;;;;;;;17.49;90.09;98863.75;4917405;29;20235;-68
2023/05/06 08:21:16;;;;;;;7.73;5.07;;;;;;;17.51;88.92;98861.75;4917478;29;20246;-68
2023/05/06 08:23:42;;;;;;;7.20;5.20;;;;;;;17.62;87.48;98870.94;4925150;29;20240;-68
2023/05/06 08:26:09;;;;;;;5.33;4.10;;;;;;;17.84;85.93;98866.47;4914725;29;20588;-68
2023/05/06 08:28:36;;;;;;;6.77;4.07;;;;;;;18.05;87.64;98864.78;4896222;29;20229;-68
2023/05/06 08:31:04;;;;;;;5.50;3.37;;;;;;;18.45;83.74;98864.22;4908830;29;20236;-67
2023/05/06 08:33:31;;;;;;;6.50;4.60;;;;;;;18.15;84.05;98859.97;4906733;28;20234;-66
2023/05/06 08:35:58;;;;;;;8.33;4.27;;;;;;;17.99;80.98;98860.28;4910415;29;20591;-66
2023/05/06 08:38:25;;;;;;;7.40;4.40;;;;;;;17.90;83.10;98859.59;4898280;28;20239;-66
2023/05/06 08:40:54;;;;;;;8.27;4.03;;;;;;;17.98;83.94;98853.38;4894726;29;20259;-67
2023/05/06 08:43:21;;;;;;;6.10;4.43;;;;;;;18.21;81.89;98860.22;4915804;28;20644;-67
2023/05/06 08:45:49;;;;;;;5.20;3.73;;;;;;;18.42;80.34;98864.59;4929203;29;20245;-68
2023/05/06 08:48:20;;;;;;;7.37;3.77;;;;;;;18.35;81.91;98858.47;4929132;29;20231;-68
2023/05/06 08:50:48;;;;;;;5.83;3.07;;;;;;;18.52;80.50;98859.78;4926140;29;20314;-68
2023/05/06 08:53:15;;;;;;;5.43;4.20;;;;;;;18.02;82.72;98853.81;4928287;29;20285;-68
2023/05/06 08:55:42;;;;;;;9.63;4.10;;;;;;;18.07;85.45;98860.13;4917715;28;20322;-68
2023/05/06 08:58:11;;;;;;;5.10;2.57;;;;;;;18.15;82.12;98852.06;4927889;29;20248;-68
2023/05/06 09:00:38;;;;;;;4.33;3.20;;;;;;;18.54;80.25;98856.94;4925734;29;20245;-68
2023/05/06 09:03:05;;;;;;;6.13;3.43;;;;;;;18.72;81.94;98859.00;4928158;29;20251;-68
2023/05/06 09:05:33;;;;;;;3.53;3.10;;;;;;;18.76;79.38;98859.44;4925505;29;20296;-68
2023/05/06 09:08:00;;;;;;;4.43;3.40;;;;;;;18.77;80.21;98856.59;4914586;29;20245;-68
2023/05/06 09:10:31;;;;;;;5.60;3.50;;;;;;;19.44;76.96;98855.94;4907784;29;20737;-68
2023/05/06 09:12:58;;;;;;;4.53;2.37;;;;;;;19.50;73.80;98856.97;4928045;29;20244;-68
2023/05/06 09:15:25;;;;;;;3.97;2.10;;;;;;;19.27;73.67;98861.63;4925103;29;20233;-68
2023/05/06 09:17:54;;;;;;;3.10;2.30;;;;;;;19.45;72.64;98852.28;4831772;29;20247;-68
2023/05/06 09:20:20;;;;;;;4.77;2.53;;;;;;;19.07;74.96;98845.72;4895544;29;20274;-68
2023/05/06 09:22:48;;;;;;;4.43;2.10;;;;;;;19.41;73.63;98851.88;4909294;29;20654;-68
2023/05/06 09:25:15;;;;;;;3.57;2.20;;;;;;;19.08;73.63;98847.34;4909415;29;20301;-68
2023/05/06 09:27:42;;;;;;;6.43;2.30;;;;;;;18.98;71.82;98841.63;4905600;29;20234;-68
2023/05/06 09:30:11;;;;;;;4.60;1.90;;;;;;;19.40;73.99;98852.06;4909475;29;20323;-69
2023/05/06 09:32:38;;;;;;;4.33;1.90;;;;;;;19.14;69.68;98846.53;4906313;29;20234;-68
2023/05/06 09:35:05;;;;;;;3.33;1.90;;;;;;;19.06;71.02;98848.56;4908943;29;20234;-68
2023/05/06 09:37:32;;;;;;;3.00;1.80;;;;;;;19.08;72.01;98841.25;4906036;28;20322;-68
2023/05/06 09:40:00;;;;;;;4.70;1.83;;;;;;;19.29;74.46;98838.41;4909651;29;20640;-68
2023/05/06 09:42:28;;;;;;;3.13;1.80;;;;;;;19.40;71.47;98844.13;4897963;28;20235;-68
2023/05/06 09:44:57;;;;;;;4.67;1.80;;;;;;;19.24;72.23;98843.50;4908419;29;20923;-68
2023/05/06 09:47:25;;;;;;;3.67;2.03;;;;;;;19.38;73.17;98836.41;4911339;29;20231;-68
2023/05/06 09:49:56;;;;;;;5.40;2.20;;;;;;;19.18;69.18;98826.59;4908525;29;20244;-68
2023/05/06 09:52:23;;;;;;;3.37;2.27;;;;;;;18.94;69.76;98827.97;4906190;29;20239;-69
2023/05/06 09:54:51;;;;;;;2.30;1.30;;;;;;;19.03;69.05;98829.44;4907491;29;20223;-69
2023/05/06 09:57:20;;;;;;;2.40;1.30;;;;;;;19.13;67.40;98822.91;4909424;29;20242;-68
2023/05/06 09:59:48;;;;;;;3.27;1.60;;;;;;;19.24;69.97;98819.69;4906521;29;20266;-68
2023/05/06 10:02:17;;;;;;;2.47;1.30;;;;;;;19.31;69.06;98815.22;4909076;29;20258;-68
2023/05/06 10:04:49;;;;;;;3.27;1.80;;;;;;;19.37;66.48;98812.75;4913855;29;20237;-68
2023/05/06 10:07:21;;;;;;;3.60;1.30;;;;;;;19.47;68.17;98814.00;4924061;29;20305;-68
2023/05/06 10:09:49;;;;;;;2.33;1.30;;;;;;;19.59;67.79;98810.75;4925438;29;20344;-68
2023/05/06 10:12:16;;;;;;;2.07;1.40;;;;;;;19.32;70.35;98811.53;4927478;29;20717;-68
2023/05/06 10:14:49;;;;;;;4.13;2.27;;;;;;;19.51;65.55;98803.00;4925135;29;20270;-68
2023/05/06 10:17:18;;;;;;;7.03;2.70;;;;;;;19.54;66.07;98806.03;4926908;29;20240;-68
2023/05/06 10:19:52;;;;;;;2.53;1.63;;;;;;;19.62;67.00;98813.78;4923714;29;20227;-68
2023/05/06 10:22:26;;;;;;;4.80;1.53;;;;;;;19.36;67.75;98817.25;4926922;29;20297;-68
2023/05/06 10:24:59;;;;;;;3.60;1.60;;;;;;;19.74;66.66;98815.81;4905948;29;20619;-68
2023/05/06 10:27:29;;;;;;;4.00;1.30;;;;;;;19.90;66.53;98799.50;4905335;29;20239;-68
2023/05/06 10:29:59;;;;;;;2.77;1.80;;;;;;;20.00;64.05;98812.31;4908569;29;20294;-68
2023/05/06 10:32:30;;;;;;;3.50;1.70;;;;;;;20.24;63.83;98801.22;4893855;28;20238;-68
2023/05/06 10:35:05;;;;;;;4.20;1.60;;;;;;;20.47;63.91;98792.78;4913066;29;20696;-68
2023/05/06 10:37:34;;;;;;;3.37;1.40;;;;;;;20.65;63.31;98786.78;4905296;29;20276;-68
2023/05/06 10:40:01;;;;;;;4.60;1.73;;;;;;;20.37;60.94;98784.47;4907855;29;20234;-68
2023/05/06 10:42:29;;;;;;;3.37;1.30;;;;;;;20.83;62.48;98779.97;4904051;28;20249;-68
2023/05/06 10:45:02;;;;;;;4.10;2.23;;;;;;;20.76;62.31;98779.97;4907213;29;20239;-68
2023/05/06 10:48:04;;;;;;;4.87;1.73;;;;;;;20.72;61.42;98781.41;4920394;29;20243;-68
2023/05/06 10:50:31;;;;;;;6.10;1.67;;;;;;;20.74;59.83;98780.19;4903916;29;20247;-68
2023/05/06 10:52:58;;;;;;;5.33;1.50;;;;;;;20.83;62.13;98774.66;4907822;29;20296;-68
2023/05/06 10:55:27;;;;;;;2.13;1.47;;;;;;;20.97;63.37;98781.50;4905455;29;20700;-68
2023/05/06 10:57:55;;;;;;;4.07;1.80;;;;;;;21.11;62.70;98770.78;4907267;28;20233;-68
2023/05/06 11:00:23;;;;;;;3.37;1.83;;;;;;;21.11;60.30;98774.25;4905607;29;20261;-68
2023/05/06 11:02:55;;;;;;;3.10;1.90;;;;;;;20.73;61.23;98769.78;4906853;28;20246;-68
2023/05/06 11:05:22;;;;;;;2.43;1.80;;;;;;;21.09;62.10;98771.81;4904541;29;20630;-68
2023/05/06 11:07:50;;;;;;;3.83;1.80;;;;;;;21.30;61.06;98763.69;4908190;28;20232;-68
2023/05/06 11:10:32;;;;;;;2.93;1.50;;;;;;;21.33;59.31;98763.25;4907922;29;20759;-68
2023/05/06 11:13:19;;;;;;;4.50;1.50;;;;;;;21.06;62.40;98766.94;4924243;29;20245;-68
2023/05/06 11:15:49;;;;;;;4.77;1.90;;;;;;;21.19;63.33;98768.66;4920024;29;20235;-68
2023/05/06 11:18:43;;;;;;;2.60;2.00;;;;;;;21.72;59.28;98760.47;4897058;29;20246;-68
2023/05/06 11:21:36;;;;;;;1.90;1.50;;;;;;;21.62;62.44;98761.78;4891460;29;20240;-68
2023/05/06 11:24:07;;;;;;;3.77;1.50;;;;;;;22.13;57.86;98759.00;4923857;29;20301;-68
2023/05/06 11:26:34;;;;;;;3.37;1.40;;;;;;;22.35;58.48;98750.50;4922022;29;20231;-68
2023/05/06 11:29:03;;;;;;;2.13;1.47;;;;;;;22.16;59.28;98755.06;4921308;29;20238;-68
2023/05/06 11:31:41;;;;;;;7.27;1.70;;;;;;;22.05;55.20;98752.09;4917835;29;20726;-68
2023/05/06 11:34:10;;;;;;;3.50;1.80;;;;;;;22.53;55.39;98761.13;4921264;29;20238;-68
2023/05/06 11:36:45;;;;;;;2.33;1.60;;;;;;;22.34;56.37;98764.84;4926684;29;20244;-68
2023/05/06 11:39:11;;;;;;;1.60;1.30;;;;;;;22.47;57.32;98758.59;4929287;28;20303;-68